createdAt,value
2022-08-05T00:01:28.367Z,101355.81
2022-08-05T00:03:57.110Z,101362.09
2022-08-05T00:06:30.750Z,101364.81
2022-08-05T00:09:01.143Z,101365.78
2022-08-05T00:11:34.802Z,101369.88
2022-08-05T00:14:13.091Z,101386.97
2022-08-05T00:16:52.699Z,101378.97
2022-08-05T00:19:24.931Z,101374.28
2022-08-05T00:22:00.193Z,101386.19
2022-08-05T00:24:30.888Z,101409.19
2022-08-05T00:26:59.666Z,101398.78
2022-08-05T00:29:27.577Z,101400.44
2022-08-05T00:32:12.984Z,101393.84
2022-08-05T00:35:04.002Z,101381.94
2022-08-05T00:37:51.190Z,101365.19
2022-08-05T00:40:27.149Z,101356.31
2022-08-05T00:42:57.947Z,101353.75
2022-08-05T00:45:37.797Z,101345.69
2022-08-05T00:48:09.320Z,101357.34
2022-08-05T00:50:37.935Z,101347.66
2022-08-05T00:53:09.914Z,101336.25
2022-08-05T00:55:51.998Z,101313.19
2022-08-05T00:58:19.417Z,101322.44
2022-08-05T01:00:47.937Z,101310.13
2022-08-05T01:03:22.602Z,101301.44
2022-08-05T01:05:54.898Z,101297.25
2022-08-05T01:08:40.503Z,101298.03
2022-08-05T01:11:36.872Z,101279.59
2022-08-05T01:14:15.445Z,101282.84
2022-08-05T01:16:49.453Z,101279.28
2022-08-05T01:19:46.351Z,101274.78
2022-08-05T01:22:53.039Z,101267.78
2022-08-05T01:25:55.025Z,101268.88
2022-08-05T01:28:25.073Z,101278.44
2022-08-05T01:31:09.843Z,101288.56
2022-08-05T01:34:27.201Z,101293.00
2022-08-05T01:37:07.284Z,101314.34
2022-08-05T01:39:46.704Z,101324.13
2022-08-05T01:42:20.522Z,101336.38
2022-08-05T01:44:54.199Z,101344.09
2022-08-05T01:47:23.112Z,101340.69
2022-08-05T01:50:00.265Z,101348.59
2022-08-05T01:52:32.373Z,101363.69
2022-08-05T01:55:05.829Z,101362.81
2022-08-05T01:58:13.576Z,101356.94
2022-08-05T02:00:31.152Z,101361.53
2022-08-05T02:03:24.467Z,101374.09
2022-08-05T02:06:01.035Z,101388.75
2022-08-05T02:08:31.672Z,101391.34
2022-08-05T02:11:13.186Z,101395.91
2022-08-05T02:13:56.576Z,101399.38
2022-08-05T02:16:32.803Z,101407.03
2022-08-05T02:19:12.066Z,101404.38
2022-08-05T02:22:05.540Z,101406.56
2022-08-05T02:24:41.159Z,101404.78
2022-08-05T02:27:11.113Z,101409.59
2022-08-05T02:29:58.668Z,101400.06
2022-08-05T02:32:31.675Z,101394.22
2022-08-05T02:35:13.759Z,101384.72
2022-08-05T02:37:47.845Z,101373.88
2022-08-05T02:40:23.160Z,101375.06
2022-08-05T02:42:54.055Z,101370.53
2022-08-05T02:45:25.259Z,101360.31
2022-08-05T02:48:06.811Z,101362.53
2022-08-05T02:50:47.070Z,101363.66
2022-08-05T02:53:19.415Z,101371.00
2022-08-05T02:55:59.740Z,101362.53
2022-08-05T02:58:30.356Z,101371.63
2022-08-05T03:01:02.162Z,101355.22
2022-08-05T03:03:33.946Z,101365.34
2022-08-05T03:06:56.562Z,101380.88
2022-08-05T03:09:07.763Z,101389.22
2022-08-05T03:11:55.323Z,101383.91
2022-08-05T03:14:22.241Z,101381.00
2022-08-05T03:16:49.530Z,101383.72
2022-08-05T03:19:34.526Z,101381.53
2022-08-05T03:22:05.021Z,101374.69
2022-08-05T03:24:49.598Z,101370.38
2022-08-05T03:27:19.638Z,101369.75
2022-08-05T03:30:07.505Z,101374.06
2022-08-05T03:32:35.191Z,101371.22
2022-08-05T03:35:04.416Z,101367.81
2022-08-05T03:37:46.370Z,101367.34
2022-08-05T03:40:24.427Z,101362.94
2022-08-05T03:42:59.005Z,101363.34
2022-08-05T03:45:28.589Z,101356.06
2022-08-05T03:47:56.797Z,101351.63
2022-08-05T03:50:24.417Z,101355.75
2022-08-05T03:56:00.767Z,101352.50
2022-08-05T03:56:18.028Z,101349.59
2022-08-05T03:59:00.994Z,101347.09
2022-08-05T04:01:32.324Z,101353.88
2022-08-05T04:04:09.808Z,101356.03
2022-08-05T04:06:47.530Z,101364.28
2022-08-05T04:09:26.018Z,101355.91
2022-08-05T04:11:56.846Z,101351.34
2022-08-05T04:14:30.587Z,101354.84
2022-08-05T04:17:00.045Z,101347.38
2022-08-05T04:19:28.956Z,101347.34
2022-08-05T04:22:05.118Z,101356.19
2022-08-05T04:24:52.520Z,101352.72
2022-08-05T04:27:33.185Z,101366.25
2022-08-05T04:30:09.473Z,101368.69
2022-08-05T04:32:36.734Z,101363.72
2022-08-05T04:35:05.963Z,101370.50
2022-08-05T04:38:01.076Z,101375.88
2022-08-05T04:40:21.025Z,101370.88
2022-08-05T04:42:48.004Z,101381.16
2022-08-05T04:45:31.087Z,101384.88
2022-08-05T04:48:18.387Z,101388.56
2022-08-05T04:51:03.840Z,101390.41
2022-08-05T04:53:39.681Z,101392.44
2022-08-05T04:56:32.747Z,101384.47
2022-08-05T04:58:55.601Z,101388.56
2022-08-05T05:01:33.730Z,101382.84
2022-08-05T05:04:10.492Z,101388.78
2022-08-05T05:06:44.339Z,101391.22
2022-08-05T05:09:14.049Z,101384.59
2022-08-05T05:11:54.524Z,101396.16
2022-08-05T05:14:31.677Z,101406.38
2022-08-05T05:17:00.259Z,101409.03
2022-08-05T05:19:37.256Z,101401.69
2022-08-05T05:22:24.193Z,101405.75
2022-08-05T05:25:00.363Z,101409.81
2022-08-05T05:27:41.652Z,101411.28
2022-08-05T05:30:29.411Z,101411.69
2022-08-05T05:33:08.778Z,101419.53
2022-08-05T05:35:47.534Z,101418.88
2022-08-05T05:38:22.430Z,101425.69
2022-08-05T05:40:55.772Z,101425.69
2022-08-05T05:43:54.173Z,101427.69
2022-08-05T05:46:17.698Z,101429.16
2022-08-05T05:48:48.312Z,101435.28
2022-08-05T05:51:23.928Z,101444.28
2022-08-05T05:53:57.311Z,101450.81
2022-08-05T05:56:32.917Z,101461.19
2022-08-05T05:59:05.644Z,101454.16
2022-08-05T06:01:36.946Z,101462.97
2022-08-05T06:04:11.794Z,101465.97
2022-08-05T06:06:42.475Z,101464.81
2022-08-05T06:09:17.346Z,101467.22
2022-08-05T06:12:01.174Z,101474.69
2022-08-05T06:14:31.001Z,101475.78
2022-08-05T06:16:58.668Z,101480.69
2022-08-05T06:19:35.107Z,101474.00
2022-08-05T06:22:07.561Z,101484.91
2022-08-05T06:24:41.747Z,101484.38
2022-08-05T06:27:17.165Z,101486.41
2022-08-05T06:30:18.005Z,101478.47
2022-08-05T06:32:48.431Z,101482.94
2022-08-05T06:36:04.110Z,101491.00
2022-08-05T06:38:11.176Z,101494.31
2022-08-05T06:40:42.126Z,101495.38
2022-08-05T06:43:57.957Z,101481.53
2022-08-05T06:46:07.277Z,101491.72
2022-08-05T06:48:53.831Z,101493.00
2022-08-05T06:51:29.763Z,101474.69
2022-08-05T06:54:02.898Z,101478.59
2022-08-05T06:56:33.860Z,101483.66
2022-08-05T06:59:08.692Z,101484.09
2022-08-05T07:01:37.138Z,101488.63
2022-08-05T07:04:08.153Z,101489.88
2022-08-05T07:06:35.638Z,101487.72
2022-08-05T07:09:04.669Z,101494.31
2022-08-05T07:11:36.906Z,101480.09
2022-08-05T07:14:29.910Z,101493.81
2022-08-05T07:18:08.755Z,101499.38
2022-08-05T07:22:39.402Z,101514.31
2022-08-05T07:25:22.695Z,101522.41
2022-08-05T07:27:57.086Z,101525.97
2022-08-05T07:30:32.709Z,101526.84
2022-08-05T07:33:05.062Z,101533.31
2022-08-05T07:36:03.792Z,101536.91
2022-08-05T07:38:26.506Z,101540.91
2022-08-05T07:42:08.865Z,101541.28
2022-08-05T07:43:51.604Z,101552.38
2022-08-05T07:46:24.446Z,101557.63
2022-08-05T07:49:02.005Z,101571.16
2022-08-05T07:51:48.680Z,101572.03
2022-08-05T07:54:30.806Z,101580.19
2022-08-05T07:57:22.718Z,101571.28
2022-08-05T07:59:51.672Z,101579.06
2022-08-05T08:02:26.763Z,101577.41
2022-08-05T08:04:58.815Z,101580.94
2022-08-05T08:07:28.496Z,101586.47
2022-08-05T08:09:55.870Z,101594.53
2022-08-05T08:12:37.319Z,101591.63
2022-08-05T08:15:15.424Z,101603.66
2022-08-05T08:17:50.544Z,101597.66
2022-08-05T08:20:45.358Z,101592.94
2022-08-05T08:23:11.525Z,101600.78
2022-08-05T08:25:59.810Z,101597.97
2022-08-05T08:28:37.215Z,101592.03
2022-08-05T08:31:14.946Z,101592.34
2022-08-05T08:33:45.493Z,101595.00
2022-08-05T08:36:38.176Z,101602.28
2022-08-05T08:39:01.624Z,101595.72
2022-08-05T08:41:52.412Z,101604.69
2022-08-05T08:45:21.001Z,101597.16
2022-08-05T08:47:47.332Z,101605.03
2022-08-05T08:50:29.974Z,101614.75
2022-08-05T08:53:12.159Z,101616.59
2022-08-05T08:56:03.512Z,101626.31
2022-08-05T08:58:37.534Z,101626.03
2022-08-05T09:01:15.855Z,101631.34
2022-08-05T09:03:54.498Z,101637.34
2022-08-05T09:06:28.186Z,101645.28
2022-08-05T09:09:01.171Z,101636.13
2022-08-05T09:11:52.941Z,101641.56
2022-08-05T09:14:57.859Z,101643.66
2022-08-05T09:17:16.173Z,101640.09
2022-08-05T09:20:02.368Z,101641.91
2022-08-05T09:23:19.891Z,101643.97
2022-08-05T09:26:06.775Z,101653.09
2022-08-05T09:28:39.773Z,101660.59
2022-08-05T09:31:22.777Z,101662.22
2022-08-05T09:33:59.564Z,101658.31
2022-08-05T09:37:00.005Z,101668.13
2022-08-05T09:39:41.677Z,101663.19
2022-08-05T09:42:23.080Z,101661.53
2022-08-05T09:44:56.849Z,101665.44
2022-08-05T09:47:48.433Z,101678.78
2022-08-05T09:50:37.796Z,101680.00
2022-08-05T09:53:05.355Z,101672.00
2022-08-05T09:55:56.899Z,101677.75
2022-08-05T09:58:24.611Z,101685.66
2022-08-05T10:01:07.280Z,101688.31
2022-08-05T10:03:58.750Z,101691.16
2022-08-05T10:06:28.208Z,101689.00
2022-08-05T10:08:56.456Z,101688.81
2022-08-05T10:11:23.776Z,101690.03
2022-08-05T10:13:58.367Z,101700.06
2022-08-05T10:16:34.073Z,101707.13
2022-08-05T10:19:09.175Z,101703.09
2022-08-05T10:21:40.925Z,101710.19
2022-08-05T10:24:13.775Z,101709.00
2022-08-05T10:26:48.864Z,101704.16
2022-08-05T10:29:23.506Z,101704.69
2022-08-05T10:33:00.860Z,101706.97
2022-08-05T10:34:40.745Z,101695.47
2022-08-05T10:37:08.367Z,101702.94
2022-08-05T10:40:03.308Z,101702.00
2022-08-05T10:42:33.300Z,101711.50
2022-08-05T10:45:20.807Z,101712.28
2022-08-05T10:48:29.779Z,101716.03
2022-08-05T10:51:05.513Z,101720.34
2022-08-05T10:54:00.738Z,101726.91
2022-08-05T10:56:43.896Z,101729.91
2022-08-05T11:00:04.323Z,101729.38
2022-08-05T11:02:14.601Z,101735.88
2022-08-05T11:05:04.202Z,101738.25
2022-08-05T11:07:32.903Z,101754.44
2022-08-05T11:10:27.468Z,101757.00
2022-08-05T11:12:57.988Z,101757.19
2022-08-05T11:16:00.346Z,101766.59
2022-08-05T11:18:33.984Z,101770.19
2022-08-05T11:21:02.969Z,101773.59
2022-08-05T11:24:30.234Z,101780.41
2022-08-05T11:27:50.148Z,101781.13
2022-08-05T11:30:17.141Z,101774.91
2022-08-05T11:32:44.164Z,101783.56
2022-08-05T11:36:07.781Z,101783.66
2022-08-05T11:38:51.002Z,101791.47
2022-08-05T11:41:54.366Z,101801.66
2022-08-05T11:44:40.926Z,101801.16
2022-08-05T11:47:11.260Z,101809.53
2022-08-05T11:49:43.315Z,101805.94
2022-08-05T11:52:29.239Z,101794.47
2022-08-05T11:54:58.996Z,101798.16
2022-08-05T11:57:39.264Z,101797.84
2022-08-05T12:00:31.715Z,101789.47
2022-08-05T12:03:16.251Z,101794.91
2022-08-05T12:06:03.338Z,101792.63
2022-08-05T12:08:33.971Z,101804.66
2022-08-05T12:11:09.921Z,101803.03
2022-08-05T12:14:04.901Z,101805.72
2022-08-05T12:16:38.516Z,101812.75
2022-08-05T12:19:08.683Z,101827.72
2022-08-05T12:21:49.564Z,101826.75
2022-08-05T12:24:20.285Z,101816.91
2022-08-05T12:26:51.528Z,101822.47
2022-08-05T12:29:28.991Z,101822.13
2022-08-05T12:32:07.548Z,101831.22
2022-08-05T12:34:38.477Z,101841.31
2022-08-05T12:37:14.023Z,101836.03
2022-08-05T12:39:51.143Z,101839.63
2022-08-05T12:42:20.882Z,101837.59
2022-08-05T12:44:48.500Z,101844.75
2022-08-05T12:47:30.493Z,101846.81
2022-08-05T12:50:03.227Z,101845.53
2022-08-05T12:52:41.796Z,101847.03
2022-08-05T12:55:26.320Z,101854.28
2022-08-05T12:58:52.494Z,101852.31
2022-08-05T13:02:01.736Z,101859.84
2022-08-05T13:03:41.749Z,101856.91
2022-08-05T13:06:17.140Z,101856.75
2022-08-05T13:08:51.999Z,101869.75
2022-08-05T13:12:03.044Z,101861.88
2022-08-05T13:14:24.989Z,101873.66
2022-08-05T13:17:31.565Z,101876.50
2022-08-05T13:20:16.513Z,101881.84
2022-08-05T13:22:52.154Z,101882.53
2022-08-05T13:25:22.136Z,101895.22
2022-08-05T13:28:07.910Z,101904.13
2022-08-05T13:30:39.233Z,101893.50
2022-08-05T13:33:06.332Z,101891.75
2022-08-05T13:35:47.611Z,101899.56
2022-08-05T13:38:30.730Z,101901.66
2022-08-05T13:41:01.454Z,101907.66
2022-08-05T13:43:44.271Z,101899.16
2022-08-05T13:46:35.796Z,101904.47
2022-08-05T13:49:04.300Z,101910.97
2022-08-05T13:51:40.665Z,101898.94
2022-08-05T13:54:15.083Z,101905.63
2022-08-05T13:56:44.885Z,101909.28
2022-08-05T13:59:19.337Z,101912.31
2022-08-05T14:01:58.337Z,101912.66
2022-08-05T14:04:51.626Z,101917.28
2022-08-05T14:08:00.327Z,101910.88
2022-08-05T14:10:28.951Z,101922.25
2022-08-05T14:12:58.867Z,101932.25
2022-08-05T14:16:06.891Z,101919.75
2022-08-05T14:18:22.938Z,101923.09
2022-08-05T14:20:52.917Z,101928.75
2022-08-05T14:23:25.470Z,101926.44
2022-08-05T14:25:58.477Z,101935.19
2022-08-05T14:28:28.720Z,101930.81
2022-08-05T14:30:57.780Z,101930.34
2022-08-05T14:33:25.009Z,101932.88
2022-08-05T14:35:54.247Z,101939.28
2022-08-05T14:38:32.558Z,101937.75
2022-08-05T14:41:05.822Z,101937.09
2022-08-05T14:43:57.541Z,101940.69
2022-08-05T14:46:29.015Z,101956.22
2022-08-05T14:49:06.419Z,101948.25
2022-08-05T14:51:42.629Z,101955.03
2022-08-05T14:54:28.066Z,101946.38
2022-08-05T14:56:57.278Z,101944.81
2022-08-05T14:59:24.843Z,101944.59
2022-08-05T15:01:53.718Z,101947.47
2022-08-05T15:04:22.285Z,101955.78
2022-08-05T15:06:51.287Z,101953.50
2022-08-05T15:09:51.431Z,101947.47
2022-08-05T15:12:08.982Z,101950.63
2022-08-05T15:14:42.177Z,101954.19
2022-08-05T15:17:47.171Z,101952.72
2022-08-05T15:20:06.046Z,101951.22
2022-08-05T15:22:33.186Z,101958.59
2022-08-05T15:25:00.680Z,101959.09
2022-08-05T15:27:39.131Z,101968.72
2022-08-05T15:30:11.265Z,101972.97
2022-08-05T15:32:41.417Z,101982.94
2022-08-05T15:35:10.885Z,101980.00
2022-08-05T15:38:35.003Z,101975.25
2022-08-05T15:40:59.323Z,101984.88
2022-08-05T15:43:20.663Z,101996.94
2022-08-05T15:45:59.783Z,101990.66
2022-08-05T15:48:28.402Z,101994.41
2022-08-05T15:50:56.462Z,101988.91
2022-08-05T15:53:26.369Z,101979.34
2022-08-05T15:56:02.857Z,101995.13
2022-08-05T15:58:35.451Z,101994.16
2022-08-05T16:01:15.808Z,101990.03
2022-08-05T16:03:48.274Z,102007.31
2022-08-05T16:06:19.571Z,102001.41
2022-08-05T16:08:50.311Z,102014.94
2022-08-05T16:11:21.121Z,102018.16
2022-08-05T16:14:07.668Z,102019.19
2022-08-05T16:16:36.321Z,102012.88
2022-08-05T16:19:04.049Z,102022.63
2022-08-05T16:21:58.863Z,102021.69
2022-08-05T16:24:41.612Z,102017.38
2022-08-05T16:27:07.415Z,102029.03
2022-08-05T16:29:37.594Z,102033.59
2022-08-05T16:32:09.536Z,102036.09
2022-08-05T16:34:37.126Z,102032.63
2022-08-05T16:38:03.463Z,102043.16
2022-08-05T16:40:06.521Z,102041.94
2022-08-05T16:42:34.842Z,102046.34
2022-08-05T16:45:05.954Z,102056.63
2022-08-05T16:47:55.524Z,102056.59
2022-08-05T16:50:25.792Z,102060.06
2022-08-05T16:52:52.839Z,102070.00
2022-08-05T16:55:24.571Z,102067.19
2022-08-05T16:57:53.613Z,102071.22
2022-08-05T17:00:34.161Z,102075.38
2022-08-05T17:03:15.360Z,102083.38
2022-08-05T17:05:53.717Z,102084.53
2022-08-05T17:08:35.886Z,102091.56
2022-08-05T17:11:03.900Z,102093.19
2022-08-05T17:13:37.794Z,102100.81
2022-08-05T17:16:29.661Z,102100.53
2022-08-05T17:18:55.867Z,102107.56
2022-08-05T17:21:23.508Z,102099.97
2022-08-05T17:24:04.476Z,102098.88
2022-08-05T17:26:36.241Z,102105.69
2022-08-05T17:29:09.860Z,102117.91
2022-08-05T17:31:56.432Z,102120.03
2022-08-05T17:34:29.553Z,102121.09
2022-08-05T17:36:57.426Z,102129.66
2022-08-05T17:39:33.427Z,102128.00
2022-08-05T17:42:19.801Z,102130.94
2022-08-05T17:44:50.255Z,102136.50
2022-08-05T17:47:23.136Z,102131.38
2022-08-05T17:50:03.918Z,102141.31
2022-08-05T17:52:53.109Z,102143.06
2022-08-05T17:55:27.242Z,102141.69
2022-08-05T17:58:02.110Z,102148.09
2022-08-05T18:00:29.954Z,102152.91
2022-08-05T18:02:57.172Z,102149.59
2022-08-05T18:05:27.912Z,102157.34
2022-08-05T18:07:56.849Z,102153.25
2022-08-05T18:10:24.286Z,102164.47
2022-08-05T18:12:51.548Z,102171.28
2022-08-05T18:15:18.709Z,102168.59
2022-08-05T18:17:58.993Z,102172.31
2022-08-05T18:20:31.908Z,102176.63
2022-08-05T18:23:11.349Z,102182.81
2022-08-05T18:25:45.222Z,102181.56
2022-08-05T18:28:16.128Z,102181.81
2022-08-05T18:30:50.842Z,102185.72
2022-08-05T18:33:23.138Z,102189.63
2022-08-05T18:36:04.284Z,102186.53
2022-08-05T18:38:36.033Z,102191.28
2022-08-05T18:41:57.640Z,102198.44
2022-08-05T18:43:54.603Z,102194.97
2022-08-05T18:46:21.657Z,102186.72
2022-08-05T18:48:53.656Z,102190.84
2022-08-05T18:52:05.982Z,102194.19
2022-08-05T18:54:31.372Z,102195.41
2022-08-05T18:57:02.631Z,102198.06
2022-08-05T18:59:43.034Z,102197.44
2022-08-05T19:02:28.149Z,102199.94
2022-08-05T19:06:05.683Z,102200.50
2022-08-05T19:07:56.847Z,102204.38
2022-08-05T19:10:28.221Z,102204.41
2022-08-05T19:12:57.077Z,102210.81
2022-08-05T19:15:58.109Z,102212.81
2022-08-05T19:18:20.866Z,102219.28
2022-08-05T19:20:52.424Z,102223.75
2022-08-05T19:24:04.560Z,102225.16
2022-08-05T19:26:09.259Z,102227.44
2022-08-05T19:28:42.083Z,102223.69
2022-08-05T19:31:13.513Z,102228.81
2022-08-05T19:33:48.632Z,102234.44
2022-08-05T19:36:26.694Z,102247.94
2022-08-05T19:38:58.936Z,102251.25
2022-08-05T19:42:03.393Z,102250.91
2022-08-05T19:44:18.475Z,102249.06
2022-08-05T19:46:46.177Z,102255.84
2022-08-05T19:49:16.997Z,102269.47
2022-08-05T19:52:08.740Z,102273.47
2022-08-05T19:54:34.618Z,102267.25
2022-08-05T19:57:08.321Z,102275.19
2022-08-05T19:59:54.669Z,102281.16
2022-08-05T20:02:31.288Z,102273.38
2022-08-05T20:04:59.490Z,102278.75
2022-08-05T20:07:47.156Z,102276.66
2022-08-05T20:10:17.028Z,102280.75
2022-08-05T20:12:47.616Z,102280.06
2022-08-05T20:15:47.775Z,102280.84
2022-08-05T20:18:10.792Z,102278.00
2022-08-05T20:20:56.617Z,102285.50
2022-08-05T20:23:39.899Z,102299.44
2022-08-05T20:26:15.944Z,102295.16
2022-08-05T20:28:52.785Z,102298.75
2022-08-05T20:31:28.270Z,102322.03
2022-08-05T20:34:04.819Z,102322.13
2022-08-05T20:36:31.813Z,102324.66
2022-08-05T20:38:59.695Z,102316.28
2022-08-05T20:41:44.420Z,102321.22
2022-08-05T20:44:29.202Z,102319.47
2022-08-05T20:47:03.613Z,102329.25
2022-08-05T20:49:33.239Z,102317.78
2022-08-05T20:52:07.625Z,102316.72
2022-08-05T20:54:55.276Z,102321.25
2022-08-05T20:57:41.894Z,102316.00
2022-08-05T21:00:36.330Z,102322.75
2022-08-05T21:03:06.753Z,102323.91
2022-08-05T21:05:48.229Z,102333.19
2022-08-05T21:08:26.644Z,102346.47
2022-08-05T21:11:00.714Z,102342.50
2022-08-05T21:13:48.008Z,102341.16
2022-08-05T21:16:29.569Z,102350.09
2022-08-05T21:19:00.269Z,102353.59
2022-08-05T21:21:43.860Z,102334.84
2022-08-05T21:24:19.496Z,102339.47
2022-08-05T21:26:53.746Z,102344.97
2022-08-05T21:29:31.340Z,102359.69
2022-08-05T21:32:00.469Z,102351.28
2022-08-05T21:34:28.329Z,102345.19
2022-08-05T21:36:58.891Z,102364.03
2022-08-05T21:39:26.987Z,102359.72
2022-08-05T21:42:02.018Z,102364.03
2022-08-05T21:44:32.773Z,102371.31
2022-08-05T21:47:00.657Z,102374.16
2022-08-05T21:50:00.498Z,102369.97
2022-08-05T21:52:27.340Z,102377.72
2022-08-05T21:55:06.809Z,102381.28
2022-08-05T21:57:35.804Z,102375.94
2022-08-05T22:00:10.705Z,102388.94
2022-08-05T22:02:39.041Z,102384.00
2022-08-05T22:05:09.053Z,102385.97
2022-08-05T22:07:46.716Z,102391.78
2022-08-05T22:10:26.818Z,102368.81
2022-08-05T22:12:59.137Z,102382.50
2022-08-05T22:15:56.674Z,102378.00
2022-08-05T22:18:25.772Z,102385.66
2022-08-05T22:20:53.066Z,102377.69
2022-08-05T22:24:02.056Z,102386.31
2022-08-05T22:26:50.002Z,102388.63
2022-08-05T22:29:26.665Z,102387.00
2022-08-05T22:32:02.646Z,102392.88
2022-08-05T22:34:31.430Z,102398.38
2022-08-05T22:36:59.430Z,102401.94
2022-08-05T22:39:32.714Z,102400.06
2022-08-05T22:42:10.948Z,102402.22
2022-08-05T22:44:39.011Z,102410.81
2022-08-05T22:47:06.621Z,102405.16
2022-08-05T22:50:19.230Z,102403.63
2022-08-05T22:52:30.479Z,102415.38
2022-08-05T22:54:59.906Z,102412.47
2022-08-05T22:57:27.087Z,102414.97
2022-08-05T23:00:02.902Z,102431.06
2022-08-05T23:02:30.349Z,102420.16
2022-08-05T23:05:01.558Z,102429.31
2022-08-05T23:07:32.231Z,102428.75
2022-08-05T23:10:01.433Z,102445.53
2022-08-05T23:12:32.183Z,102443.00
2022-08-05T23:15:03.565Z,102447.81
2022-08-05T23:17:59.668Z,102439.81
2022-08-05T23:20:25.643Z,102437.47
2022-08-05T23:22:55.888Z,102432.66
2022-08-05T23:25:50.869Z,102442.13
2022-08-05T23:28:11.940Z,102449.00
2022-08-05T23:30:40.007Z,102446.19
2022-08-05T23:33:16.181Z,102452.06
2022-08-05T23:35:49.834Z,102450.09
2022-08-05T23:38:17.022Z,102441.63
2022-08-05T23:40:50.039Z,102462.34
2022-08-05T23:43:25.047Z,102460.78
2022-08-05T23:46:21.440Z,102473.88
2022-08-05T23:49:00.866Z,102468.75
2022-08-05T23:51:54.328Z,102475.84
2022-08-05T23:54:30.186Z,102474.03
2022-08-05T23:57:04.883Z,102472.94
